Accueil
METAR-TAF:

METAR-TAF

Aéroports :

Aéroport international de Coni

Coni, Italie

latitude: 44-32-47N, longitude: 007-37-20E, altitude: 386 m

Observation

Le bulletin a été fait il y a 15 minutes, à 09:20 UTC
Vent 3 kt de direction variable
Température 26°C
Humidité 61%
Pression 1013 hPa
Visibilité 10 km ou plus

METAR: LIMZ 300920Z AUTO VRB03KT 9999 NCD 26/18 Q1013

Heure: 11:35 (09:35 UTC)

Prévision

Le bulletin a été fait il y a 4 heures et 35 minutes, à 05:00 UTC
Prévision valable du 30 à 06 UTC au 01 à 06 UTC
Vent 5 kt de direction variable
Visibilité 10 km ou plus
Nuages épars à une hauteur de 4000 ft
Probabilité 30% :
Temporairement
du 30 à 14 UTC au 30 à 21 UTC
orage, pluie

TAF: LIMZ 300500Z 3006/0106 VRB05KT 9999 SCT040 PROB30 TEMPO 3014/3021 TSRA

Observations et prévisions météorologiques de plus de 4000 aéroports (messages METAR et TAF).

Les stations disponibles sont représentées par des disques jaunes et rouges sur la carte.

Passer la souris dessus pour voir le nom de la station.

Cliquer dessus pour voir les observations et prévisions météorologiques.

Pour changer de carte: cliquez sur les boutons verts avec une croix noire pour zoomer, sur le bouton vert avec un tiret pour effectuer un zoom arrière, ou sur les flèches vertes pour les cartes adjacentes.


METAR-TAF: